sensor_id;sensor_type;location;lat;lon;timestamp;P1;durP1;ratioP1;P2;durP2;ratioP2
13303;SDS011;6720;51.958;4.540;2024-03-08T00:02:22;37.30;;;25.73;;
13303;SDS011;6720;51.958;4.540;2024-03-08T00:04:48;42.50;;;28.50;;
13303;SDS011;6720;51.958;4.540;2024-03-08T00:07:13;36.90;;;26.37;;
13303;SDS011;6720;51.958;4.540;2024-03-08T00:09:39;39.17;;;25.67;;
13303;SDS011;6720;51.958;4.540;2024-03-08T00:12:04;40.17;;;27.20;;
13303;SDS011;6720;51.958;4.540;2024-03-08T00:14:29;39.27;;;26.27;;
13303;SDS011;6720;51.958;4.540;2024-03-08T00:17:05;39.90;;;27.37;;
13303;SDS011;6720;51.958;4.540;2024-03-08T00:19:41;40.47;;;27.73;;
13303;SDS011;6720;51.958;4.540;2024-03-08T00:22:07;40.83;;;26.10;;
13303;SDS011;6720;51.958;4.540;2024-03-08T00:24:33;37.27;;;26.40;;
13303;SDS011;6720;51.958;4.540;2024-03-08T00:26:58;38.07;;;26.47;;
13303;SDS011;6720;51.958;4.540;2024-03-08T00:29:23;44.27;;;28.67;;
13303;SDS011;6720;51.958;4.540;2024-03-08T00:31:49;37.30;;;25.77;;
13303;SDS011;6720;51.958;4.540;2024-03-08T00:34:14;37.60;;;25.77;;
13303;SDS011;6720;51.958;4.540;2024-03-08T00:36:39;40.97;;;27.67;;
13303;SDS011;6720;51.958;4.540;2024-03-08T00:39:04;42.00;;;25.80;;
13303;SDS011;6720;51.958;4.540;2024-03-08T00:41:31;39.93;;;27.07;;
13303;SDS011;6720;51.958;4.540;2024-03-08T00:43:57;36.90;;;25.40;;
13303;SDS011;6720;51.958;4.540;2024-03-08T00:46:22;39.30;;;27.40;;
13303;SDS011;6720;51.958;4.540;2024-03-08T00:48:48;34.97;;;25.63;;
13303;SDS011;6720;51.958;4.540;2024-03-08T00:51:13;36.20;;;25.43;;
13303;SDS011;6720;51.958;4.540;2024-03-08T00:53:40;41.47;;;27.07;;
13303;SDS011;6720;51.958;4.540;2024-03-08T00:56:05;35.00;;;25.10;;
13303;SDS011;6720;51.958;4.540;2024-03-08T00:58:30;35.60;;;24.73;;
13303;SDS011;6720;51.958;4.540;2024-03-08T01:00:56;37.80;;;26.03;;
13303;SDS011;6720;51.958;4.540;2024-03-08T01:03:22;40.27;;;28.17;;
13303;SDS011;6720;51.958;4.540;2024-03-08T01:05:47;32.37;;;23.30;;
13303;SDS011;6720;51.958;4.540;2024-03-08T01:08:12;36.73;;;27.13;;
13303;SDS011;6720;51.958;4.540;2024-03-08T01:10:38;37.03;;;25.90;;
13303;SDS011;6720;51.958;4.540;2024-03-08T01:13:03;37.47;;;25.43;;
13303;SDS011;6720;51.958;4.540;2024-03-08T01:15:28;39.53;;;28.10;;
13303;SDS011;6720;51.958;4.540;2024-03-08T01:17:54;41.23;;;27.30;;
13303;SDS011;6720;51.958;4.540;2024-03-08T01:20:19;35.03;;;25.50;;
13303;SDS011;6720;51.958;4.540;2024-03-08T01:22:46;39.53;;;26.27;;
13303;SDS011;6720;51.958;4.540;2024-03-08T01:25:11;39.07;;;26.43;;
13303;SDS011;6720;51.958;4.540;2024-03-08T01:27:36;36.37;;;26.10;;
13303;SDS011;6720;51.958;4.540;2024-03-08T01:30:02;35.57;;;24.77;;
13303;SDS011;6720;51.958;4.540;2024-03-08T01:32:28;34.20;;;25.60;;
13303;SDS011;6720;51.958;4.540;2024-03-08T01:34:54;36.03;;;25.33;;
13303;SDS011;6720;51.958;4.540;2024-03-08T01:37:19;33.50;;;25.50;;
13303;SDS011;6720;51.958;4.540;2024-03-08T01:39:45;33.30;;;25.07;;
13303;SDS011;6720;51.958;4.540;2024-03-08T01:42:10;33.07;;;24.07;;
13303;SDS011;6720;51.958;4.540;2024-03-08T01:44:37;37.30;;;26.60;;
13303;SDS011;6720;51.958;4.540;2024-03-08T01:47:04;33.90;;;25.27;;
13303;SDS011;6720;51.958;4.540;2024-03-08T01:49:30;36.20;;;25.57;;
13303;SDS011;6720;51.958;4.540;2024-03-08T01:51:55;35.23;;;24.17;;
13303;SDS011;6720;51.958;4.540;2024-03-08T01:54:21;34.90;;;24.60;;
13303;SDS011;6720;51.958;4.540;2024-03-08T01:56:48;36.87;;;26.30;;
13303;SDS011;6720;51.958;4.540;2024-03-08T01:59:15;37.10;;;26.00;;
13303;SDS011;6720;51.958;4.540;2024-03-08T02:01:40;37.77;;;25.47;;
13303;SDS011;6720;51.958;4.540;2024-03-08T02:04:06;32.63;;;24.53;;
13303;SDS011;6720;51.958;4.540;2024-03-08T02:06:32;33.27;;;25.03;;
13303;SDS011;6720;51.958;4.540;2024-03-08T02:08:57;34.40;;;25.03;;
13303;SDS011;6720;51.958;4.540;2024-03-08T02:11:23;41.83;;;27.87;;
13303;SDS011;6720;51.958;4.540;2024-03-08T02:13:48;38.67;;;26.70;;
13303;SDS011;6720;51.958;4.540;2024-03-08T02:16:19;35.07;;;25.27;;
13303;SDS011;6720;51.958;4.540;2024-03-08T02:18:44;38.07;;;27.73;;
13303;SDS011;6720;51.958;4.540;2024-03-08T02:21:10;37.50;;;25.70;;
13303;SDS011;6720;51.958;4.540;2024-03-08T02:23:35;38.43;;;24.83;;
13303;SDS011;6720;51.958;4.540;2024-03-08T02:26:02;35.30;;;26.13;;
13303;SDS011;6720;51.958;4.540;2024-03-08T02:28:29;35.17;;;24.87;;
13303;SDS011;6720;51.958;4.540;2024-03-08T02:30:55;34.93;;;26.67;;
13303;SDS011;6720;51.958;4.540;2024-03-08T02:33:21;36.67;;;25.93;;
13303;SDS011;6720;51.958;4.540;2024-03-08T02:35:46;36.43;;;25.90;;
13303;SDS011;6720;51.958;4.540;2024-03-08T02:38:19;38.43;;;27.57;;
13303;SDS011;6720;51.958;4.540;2024-03-08T02:40:45;35.27;;;24.70;;
13303;SDS011;6720;51.958;4.540;2024-03-08T02:43:11;34.23;;;24.83;;
13303;SDS011;6720;51.958;4.540;2024-03-08T02:45:37;37.10;;;27.17;;
13303;SDS011;6720;51.958;4.540;2024-03-08T02:48:02;35.33;;;25.57;;
13303;SDS011;6720;51.958;4.540;2024-03-08T02:50:28;35.23;;;25.83;;
13303;SDS011;6720;51.958;4.540;2024-03-08T02:52:53;35.73;;;25.33;;
13303;SDS011;6720;51.958;4.540;2024-03-08T02:55:18;34.83;;;25.90;;
13303;SDS011;6720;51.958;4.540;2024-03-08T02:57:45;36.90;;;26.77;;
13303;SDS011;6720;51.958;4.540;2024-03-08T03:00:12;33.87;;;24.93;;
13303;SDS011;6720;51.958;4.540;2024-03-08T03:02:38;35.97;;;25.37;;
13303;SDS011;6720;51.958;4.540;2024-03-08T03:05:03;38.97;;;29.00;;
13303;SDS011;6720;51.958;4.540;2024-03-08T03:07:32;36.23;;;25.73;;
13303;SDS011;6720;51.958;4.540;2024-03-08T03:10:01;36.57;;;26.63;;
13303;SDS011;6720;51.958;4.540;2024-03-08T03:12:29;35.93;;;26.73;;
13303;SDS011;6720;51.958;4.540;2024-03-08T03:14:55;40.07;;;27.83;;
13303;SDS011;6720;51.958;4.540;2024-03-08T03:17:21;33.63;;;25.93;;
13303;SDS011;6720;51.958;4.540;2024-03-08T03:19:47;34.70;;;26.63;;
13303;SDS011;6720;51.958;4.540;2024-03-08T03:22:12;34.10;;;26.43;;
13303;SDS011;6720;51.958;4.540;2024-03-08T03:24:38;33.23;;;25.17;;
13303;SDS011;6720;51.958;4.540;2024-03-08T03:27:04;36.63;;;27.20;;
13303;SDS011;6720;51.958;4.540;2024-03-08T03:29:39;38.87;;;28.03;;
13303;SDS011;6720;51.958;4.540;2024-03-08T03:32:05;34.97;;;26.70;;
13303;SDS011;6720;51.958;4.540;2024-03-08T03:34:32;36.03;;;27.57;;
13303;SDS011;6720;51.958;4.540;2024-03-08T03:36:58;43.03;;;30.10;;
13303;SDS011;6720;51.958;4.540;2024-03-08T03:39:23;38.17;;;27.17;;
13303;SDS011;6720;51.958;4.540;2024-03-08T03:41:48;36.53;;;27.13;;
13303;SDS011;6720;51.958;4.540;2024-03-08T03:44:17;34.50;;;27.00;;
13303;SDS011;6720;51.958;4.540;2024-03-08T03:46:42;34.33;;;27.33;;
13303;SDS011;6720;51.958;4.540;2024-03-08T03:49:10;35.47;;;27.60;;
13303;SDS011;6720;51.958;4.540;2024-03-08T03:51:36;38.63;;;27.17;;
13303;SDS011;6720;51.958;4.540;2024-03-08T03:54:01;38.67;;;27.40;;
13303;SDS011;6720;51.958;4.540;2024-03-08T03:56:28;34.93;;;25.97;;
13303;SDS011;6720;51.958;4.540;2024-03-08T03:58:53;36.90;;;27.83;;
13303;SDS011;6720;51.958;4.540;2024-03-08T04:01:19;39.60;;;28.73;;
13303;SDS011;6720;51.958;4.540;2024-03-08T04:03:55;34.90;;;28.17;;
13303;SDS011;6720;51.958;4.540;2024-03-08T04:06:24;34.30;;;26.77;;
13303;SDS011;6720;51.958;4.540;2024-03-08T04:08:49;38.23;;;28.60;;
13303;SDS011;6720;51.958;4.540;2024-03-08T04:11:15;34.23;;;26.83;;
13303;SDS011;6720;51.958;4.540;2024-03-08T04:13:41;37.27;;;27.80;;
13303;SDS011;6720;51.958;4.540;2024-03-08T04:16:07;37.93;;;28.50;;
13303;SDS011;6720;51.958;4.540;2024-03-08T04:18:33;35.40;;;27.93;;
13303;SDS011;6720;51.958;4.540;2024-03-08T04:21:00;37.07;;;27.20;;
13303;SDS011;6720;51.958;4.540;2024-03-08T04:23:26;37.10;;;28.73;;
13303;SDS011;6720;51.958;4.540;2024-03-08T04:25:53;36.53;;;27.03;;
13303;SDS011;6720;51.958;4.540;2024-03-08T04:28:19;35.70;;;25.60;;
13303;SDS011;6720;51.958;4.540;2024-03-08T04:30:44;41.43;;;29.57;;
13303;SDS011;6720;51.958;4.540;2024-03-08T04:33:11;37.67;;;28.50;;
13303;SDS011;6720;51.958;4.540;2024-03-08T04:35:36;38.27;;;27.93;;
13303;SDS011;6720;51.958;4.540;2024-03-08T04:38:01;35.07;;;27.17;;
13303;SDS011;6720;51.958;4.540;2024-03-08T04:40:42;34.23;;;27.53;;
13303;SDS011;6720;51.958;4.540;2024-03-08T04:43:19;35.70;;;27.53;;
13303;SDS011;6720;51.958;4.540;2024-03-08T04:45:45;35.37;;;28.77;;
13303;SDS011;6720;51.958;4.540;2024-03-08T04:48:17;36.30;;;28.13;;
13303;SDS011;6720;51.958;4.540;2024-03-08T04:50:43;35.33;;;28.87;;
13303;SDS011;6720;51.958;4.540;2024-03-08T04:53:11;37.30;;;29.27;;
13303;SDS011;6720;51.958;4.540;2024-03-08T04:55:36;34.93;;;28.20;;
13303;SDS011;6720;51.958;4.540;2024-03-08T04:58:02;34.40;;;27.57;;
13303;SDS011;6720;51.958;4.540;2024-03-08T05:00:29;35.73;;;28.37;;
13303;SDS011;6720;51.958;4.540;2024-03-08T05:02:54;36.60;;;28.80;;
13303;SDS011;6720;51.958;4.540;2024-03-08T05:05:19;36.57;;;29.17;;
13303;SDS011;6720;51.958;4.540;2024-03-08T05:07:44;36.60;;;29.10;;
13303;SDS011;6720;51.958;4.540;2024-03-08T05:10:10;38.50;;;29.40;;
13303;SDS011;6720;51.958;4.540;2024-03-08T05:12:36;37.83;;;29.27;;
13303;SDS011;6720;51.958;4.540;2024-03-08T05:15:04;37.37;;;28.97;;
13303;SDS011;6720;51.958;4.540;2024-03-08T05:17:30;39.17;;;29.13;;
13303;SDS011;6720;51.958;4.540;2024-03-08T05:19:55;34.57;;;28.97;;
13303;SDS011;6720;51.958;4.540;2024-03-08T05:22:20;35.40;;;28.37;;
13303;SDS011;6720;51.958;4.540;2024-03-08T05:24:45;40.27;;;29.17;;
13303;SDS011;6720;51.958;4.540;2024-03-08T05:27:11;36.53;;;29.90;;
13303;SDS011;6720;51.958;4.540;2024-03-08T05:29:38;36.80;;;29.47;;
13303;SDS011;6720;51.958;4.540;2024-03-08T05:32:03;39.47;;;29.93;;
13303;SDS011;6720;51.958;4.540;2024-03-08T05:34:29;38.83;;;30.13;;
13303;SDS011;6720;51.958;4.540;2024-03-08T05:37:04;34.73;;;28.17;;
13303;SDS011;6720;51.958;4.540;2024-03-08T05:39:41;37.50;;;29.97;;
13303;SDS011;6720;51.958;4.540;2024-03-08T05:42:06;39.67;;;28.87;;
13303;SDS011;6720;51.958;4.540;2024-03-08T05:44:33;39.17;;;30.30;;
13303;SDS011;6720;51.958;4.540;2024-03-08T05:46:58;38.27;;;29.30;;
13303;SDS011;6720;51.958;4.540;2024-03-08T05:49:24;42.27;;;31.53;;
13303;SDS011;6720;51.958;4.540;2024-03-08T05:51:50;36.93;;;30.00;;
13303;SDS011;6720;51.958;4.540;2024-03-08T05:54:16;37.53;;;30.50;;
13303;SDS011;6720;51.958;4.540;2024-03-08T05:56:41;35.40;;;29.50;;
13303;SDS011;6720;51.958;4.540;2024-03-08T05:59:08;35.37;;;30.13;;
13303;SDS011;6720;51.958;4.540;2024-03-08T06:01:34;35.13;;;29.03;;
13303;SDS011;6720;51.958;4.540;2024-03-08T06:04:01;36.93;;;29.30;;
13303;SDS011;6720;51.958;4.540;2024-03-08T06:06:26;36.03;;;29.53;;
13303;SDS011;6720;51.958;4.540;2024-03-08T06:08:52;35.50;;;29.27;;
13303;SDS011;6720;51.958;4.540;2024-03-08T06:11:18;36.70;;;29.73;;
13303;SDS011;6720;51.958;4.540;2024-03-08T06:13:44;37.03;;;29.10;;
13303;SDS011;6720;51.958;4.540;2024-03-08T06:16:09;37.83;;;31.23;;
13303;SDS011;6720;51.958;4.540;2024-03-08T06:18:34;37.00;;;29.80;;
13303;SDS011;6720;51.958;4.540;2024-03-08T06:21:05;37.60;;;30.07;;
13303;SDS011;6720;51.958;4.540;2024-03-08T06:23:34;38.03;;;30.53;;
13303;SDS011;6720;51.958;4.540;2024-03-08T06:26:09;38.33;;;29.73;;
13303;SDS011;6720;51.958;4.540;2024-03-08T06:28:34;37.70;;;29.57;;
13303;SDS011;6720;51.958;4.540;2024-03-08T06:31:00;37.67;;;30.47;;
13303;SDS011;6720;51.958;4.540;2024-03-08T06:33:26;35.80;;;29.10;;
13303;SDS011;6720;51.958;4.540;2024-03-08T06:35:52;36.03;;;30.60;;
13303;SDS011;6720;51.958;4.540;2024-03-08T06:38:19;39.47;;;31.30;;
13303;SDS011;6720;51.958;4.540;2024-03-08T06:40:45;37.73;;;30.37;;
13303;SDS011;6720;51.958;4.540;2024-03-08T06:43:13;36.47;;;29.63;;
13303;SDS011;6720;51.958;4.540;2024-03-08T06:45:41;37.13;;;30.70;;
13303;SDS011;6720;51.958;4.540;2024-03-08T06:48:07;33.47;;;28.50;;
13303;SDS011;6720;51.958;4.540;2024-03-08T06:50:34;35.17;;;29.43;;
13303;SDS011;6720;51.958;4.540;2024-03-08T06:53:01;37.30;;;30.13;;
13303;SDS011;6720;51.958;4.540;2024-03-08T06:55:26;37.83;;;30.30;;
13303;SDS011;6720;51.958;4.540;2024-03-08T06:57:51;34.43;;;28.60;;
13303;SDS011;6720;51.958;4.540;2024-03-08T07:00:17;36.90;;;29.13;;
13303;SDS011;6720;51.958;4.540;2024-03-08T07:02:46;36.77;;;29.07;;
13303;SDS011;6720;51.958;4.540;2024-03-08T07:05:13;33.90;;;28.47;;
13303;SDS011;6720;51.958;4.540;2024-03-08T07:07:39;35.67;;;27.97;;
13303;SDS011;6720;51.958;4.540;2024-03-08T07:10:06;34.40;;;28.97;;
13303;SDS011;6720;51.958;4.540;2024-03-08T07:12:36;37.33;;;29.77;;
13303;SDS011;6720;51.958;4.540;2024-03-08T07:15:01;36.53;;;30.03;;
13303;SDS011;6720;51.958;4.540;2024-03-08T07:17:27;36.80;;;28.53;;
13303;SDS011;6720;51.958;4.540;2024-03-08T07:19:52;35.63;;;29.27;;
13303;SDS011;6720;51.958;4.540;2024-03-08T07:22:19;34.27;;;28.13;;
13303;SDS011;6720;51.958;4.540;2024-03-08T07:24:45;32.30;;;26.50;;
13303;SDS011;6720;51.958;4.540;2024-03-08T07:27:29;34.83;;;27.83;;
13303;SDS011;6720;51.958;4.540;2024-03-08T07:29:54;35.40;;;27.73;;
13303;SDS011;6720;51.958;4.540;2024-03-08T07:32:20;35.83;;;29.60;;
13303;SDS011;6720;51.958;4.540;2024-03-08T07:34:49;35.87;;;28.13;;
13303;SDS011;6720;51.958;4.540;2024-03-08T07:37:15;34.20;;;27.40;;
13303;SDS011;6720;51.958;4.540;2024-03-08T07:39:41;40.43;;;28.73;;
13303;SDS011;6720;51.958;4.540;2024-03-08T07:42:06;37.13;;;28.47;;
13303;SDS011;6720;51.958;4.540;2024-03-08T07:44:32;36.73;;;28.20;;
13303;SDS011;6720;51.958;4.540;2024-03-08T07:46:57;31.47;;;27.10;;
13303;SDS011;6720;51.958;4.540;2024-03-08T07:49:23;36.07;;;28.33;;
13303;SDS011;6720;51.958;4.540;2024-03-08T07:51:48;33.73;;;28.23;;
13303;SDS011;6720;51.958;4.540;2024-03-08T07:54:25;39.70;;;29.80;;
13303;SDS011;6720;51.958;4.540;2024-03-08T07:57:18;37.77;;;29.93;;
13303;SDS011;6720;51.958;4.540;2024-03-08T08:00:09;33.20;;;28.13;;
13303;SDS011;6720;51.958;4.540;2024-03-08T08:02:36;33.17;;;27.63;;
13303;SDS011;6720;51.958;4.540;2024-03-08T08:05:01;36.60;;;29.57;;
13303;SDS011;6720;51.958;4.540;2024-03-08T08:07:26;38.33;;;29.30;;
13303;SDS011;6720;51.958;4.540;2024-03-08T08:09:52;34.93;;;28.57;;
13303;SDS011;6720;51.958;4.540;2024-03-08T08:12:30;33.73;;;27.40;;
13303;SDS011;6720;51.958;4.540;2024-03-08T08:15:07;33.50;;;27.83;;
13303;SDS011;6720;51.958;4.540;2024-03-08T08:17:32;34.13;;;28.83;;
13303;SDS011;6720;51.958;4.540;2024-03-08T08:19:58;32.20;;;26.70;;
13303;SDS011;6720;51.958;4.540;2024-03-08T08:22:23;38.67;;;29.77;;
13303;SDS011;6720;51.958;4.540;2024-03-08T08:24:49;33.63;;;27.67;;
13303;SDS011;6720;51.958;4.540;2024-03-08T08:27:14;33.27;;;28.00;;
13303;SDS011;6720;51.958;4.540;2024-03-08T08:29:39;33.90;;;26.80;;
13303;SDS011;6720;51.958;4.540;2024-03-08T08:32:05;37.87;;;27.73;;
13303;SDS011;6720;51.958;4.540;2024-03-08T08:34:30;33.93;;;27.57;;
13303;SDS011;6720;51.958;4.540;2024-03-08T08:36:56;34.50;;;27.53;;
13303;SDS011;6720;51.958;4.540;2024-03-08T08:39:21;31.83;;;26.77;;
13303;SDS011;6720;51.958;4.540;2024-03-08T08:41:47;34.00;;;28.00;;
13303;SDS011;6720;51.958;4.540;2024-03-08T08:44:13;27.20;;;22.57;;
13303;SDS011;6720;51.958;4.540;2024-03-08T08:46:38;34.83;;;27.27;;
13303;SDS011;6720;51.958;4.540;2024-03-08T08:49:04;33.70;;;26.50;;
13303;SDS011;6720;51.958;4.540;2024-03-08T08:51:30;31.03;;;25.23;;
13303;SDS011;6720;51.958;4.540;2024-03-08T08:53:56;33.03;;;26.97;;
13303;SDS011;6720;51.958;4.540;2024-03-08T08:56:21;33.97;;;27.07;;
13303;SDS011;6720;51.958;4.540;2024-03-08T08:58:47;34.53;;;27.20;;
13303;SDS011;6720;51.958;4.540;2024-03-08T09:01:14;34.63;;;27.87;;
13303;SDS011;6720;51.958;4.540;2024-03-08T09:03:39;33.20;;;27.40;;
13303;SDS011;6720;51.958;4.540;2024-03-08T09:06:11;29.40;;;23.77;;
13303;SDS011;6720;51.958;4.540;2024-03-08T09:08:37;34.43;;;26.97;;
13303;SDS011;6720;51.958;4.540;2024-03-08T09:11:03;31.63;;;27.03;;
13303;SDS011;6720;51.958;4.540;2024-03-08T09:13:28;31.67;;;25.63;;
13303;SDS011;6720;51.958;4.540;2024-03-08T09:15:53;28.67;;;25.53;;
13303;SDS011;6720;51.958;4.540;2024-03-08T09:18:19;33.60;;;27.70;;
13303;SDS011;6720;51.958;4.540;2024-03-08T09:20:44;32.33;;;26.50;;
13303;SDS011;6720;51.958;4.540;2024-03-08T09:23:09;31.90;;;26.93;;
13303;SDS011;6720;51.958;4.540;2024-03-08T09:25:35;30.50;;;25.97;;
13303;SDS011;6720;51.958;4.540;2024-03-08T09:28:00;34.77;;;25.70;;
13303;SDS011;6720;51.958;4.540;2024-03-08T09:30:25;32.30;;;26.10;;
13303;SDS011;6720;51.958;4.540;2024-03-08T09:32:51;30.90;;;27.40;;
13303;SDS011;6720;51.958;4.540;2024-03-08T09:35:17;32.43;;;24.97;;
13303;SDS011;6720;51.958;4.540;2024-03-08T09:37:43;31.87;;;27.53;;
13303;SDS011;6720;51.958;4.540;2024-03-08T09:40:08;32.07;;;26.37;;
13303;SDS011;6720;51.958;4.540;2024-03-08T09:42:41;34.07;;;27.33;;
13303;SDS011;6720;51.958;4.540;2024-03-08T09:45:10;30.60;;;26.67;;
13303;SDS011;6720;51.958;4.540;2024-03-08T09:47:36;32.47;;;27.37;;
13303;SDS011;6720;51.958;4.540;2024-03-08T09:50:04;31.90;;;26.83;;
13303;SDS011;6720;51.958;4.540;2024-03-08T09:52:30;28.77;;;25.67;;
13303;SDS011;6720;51.958;4.540;2024-03-08T09:54:57;30.73;;;27.00;;
13303;SDS011;6720;51.958;4.540;2024-03-08T09:57:23;31.23;;;26.63;;
13303;SDS011;6720;51.958;4.540;2024-03-08T09:59:49;31.67;;;25.97;;
13303;SDS011;6720;51.958;4.540;2024-03-08T10:02:15;30.80;;;26.13;;
13303;SDS011;6720;51.958;4.540;2024-03-08T10:04:41;29.70;;;25.13;;
13303;SDS011;6720;51.958;4.540;2024-03-08T10:07:11;30.47;;;25.67;;
13303;SDS011;6720;51.958;4.540;2024-03-08T10:09:37;28.63;;;25.53;;
13303;SDS011;6720;51.958;4.540;2024-03-08T10:12:03;27.87;;;24.07;;
13303;SDS011;6720;51.958;4.540;2024-03-08T10:14:30;29.07;;;25.23;;
13303;SDS011;6720;51.958;4.540;2024-03-08T10:16:56;27.17;;;24.30;;
13303;SDS011;6720;51.958;4.540;2024-03-08T10:19:24;30.00;;;26.27;;
13303;SDS011;6720;51.958;4.540;2024-03-08T10:21:50;33.00;;;28.17;;
13303;SDS011;6720;51.958;4.540;2024-03-08T10:24:18;30.77;;;25.27;;
13303;SDS011;6720;51.958;4.540;2024-03-08T10:26:43;29.13;;;26.03;;
13303;SDS011;6720;51.958;4.540;2024-03-08T10:29:09;28.50;;;25.43;;
13303;SDS011;6720;51.958;4.540;2024-03-08T10:31:34;30.13;;;25.47;;
13303;SDS011;6720;51.958;4.540;2024-03-08T10:34:00;27.80;;;24.90;;
13303;SDS011;6720;51.958;4.540;2024-03-08T10:36:26;27.90;;;24.43;;
13303;SDS011;6720;51.958;4.540;2024-03-08T10:38:53;30.13;;;24.83;;
13303;SDS011;6720;51.958;4.540;2024-03-08T10:41:18;26.23;;;23.40;;
13303;SDS011;6720;51.958;4.540;2024-03-08T10:49:01;25.17;;;22.50;;
13303;SDS011;6720;51.958;4.540;2024-03-08T10:51:29;29.20;;;25.30;;
13303;SDS011;6720;51.958;4.540;2024-03-08T10:53:56;26.93;;;23.80;;
13303;SDS011;6720;51.958;4.540;2024-03-08T10:56:22;27.73;;;24.83;;
13303;SDS011;6720;51.958;4.540;2024-03-08T10:58:47;27.40;;;24.50;;
13303;SDS011;6720;51.958;4.540;2024-03-08T11:01:13;28.93;;;25.67;;
13303;SDS011;6720;51.958;4.540;2024-03-08T11:06:08;28.40;;;25.37;;
13303;SDS011;6720;51.958;4.540;2024-03-08T11:08:39;27.03;;;24.13;;
13303;SDS011;6720;51.958;4.540;2024-03-08T11:11:04;27.30;;;24.40;;
13303;SDS011;6720;51.958;4.540;2024-03-08T11:15:59;27.27;;;24.37;;
13303;SDS011;6720;51.958;4.540;2024-03-08T11:18:25;23.50;;;21.00;;
13303;SDS011;6720;51.958;4.540;2024-03-08T11:20:51;26.67;;;23.40;;
13303;SDS011;6720;51.958;4.540;2024-03-08T11:23:18;26.33;;;22.97;;
13303;SDS011;6720;51.958;4.540;2024-03-08T11:25:47;26.00;;;23.20;;
13303;SDS011;6720;51.958;4.540;2024-03-08T11:30:47;25.60;;;22.03;;
13303;SDS011;6720;51.958;4.540;2024-03-08T11:33:16;25.43;;;22.67;;
13303;SDS011;6720;51.958;4.540;2024-03-08T11:35:41;24.80;;;22.20;;
13303;SDS011;6720;51.958;4.540;2024-03-08T11:38:07;27.07;;;23.70;;
13303;SDS011;6720;51.958;4.540;2024-03-08T11:40:33;23.83;;;20.23;;
13303;SDS011;6720;51.958;4.540;2024-03-08T11:42:59;26.33;;;22.20;;
13303;SDS011;6720;51.958;4.540;2024-03-08T11:45:28;25.90;;;22.13;;
13303;SDS011;6720;51.958;4.540;2024-03-08T11:47:54;23.77;;;21.20;;
13303;SDS011;6720;51.958;4.540;2024-03-08T11:50:19;25.03;;;22.43;;
13303;SDS011;6720;51.958;4.540;2024-03-08T11:52:46;25.03;;;21.47;;
13303;SDS011;6720;51.958;4.540;2024-03-08T11:55:11;23.23;;;20.87;;
13303;SDS011;6720;51.958;4.540;2024-03-08T11:57:37;24.37;;;21.97;;
13303;SDS011;6720;51.958;4.540;2024-03-08T12:00:03;23.67;;;21.10;;
13303;SDS011;6720;51.958;4.540;2024-03-08T12:02:32;27.50;;;24.53;;
13303;SDS011;6720;51.958;4.540;2024-03-08T12:05:00;26.30;;;23.17;;
13303;SDS011;6720;51.958;4.540;2024-03-08T12:07:26;26.70;;;23.90;;
13303;SDS011;6720;51.958;4.540;2024-03-08T12:12:42;25.37;;;22.47;;
13303;SDS011;6720;51.958;4.540;2024-03-08T12:15:07;24.80;;;22.43;;
13303;SDS011;6720;51.958;4.540;2024-03-08T12:17:33;24.27;;;21.77;;
13303;SDS011;6720;51.958;4.540;2024-03-08T12:20:10;23.37;;;19.93;;
13303;SDS011;6720;51.958;4.540;2024-03-08T12:22:40;22.87;;;20.57;;
13303;SDS011;6720;51.958;4.540;2024-03-08T12:25:06;24.13;;;21.73;;
13303;SDS011;6720;51.958;4.540;2024-03-08T12:27:35;22.93;;;20.63;;
13303;SDS011;6720;51.958;4.540;2024-03-08T12:30:14;23.60;;;21.03;;
13303;SDS011;6720;51.958;4.540;2024-03-08T12:32:40;23.27;;;20.93;;
13303;SDS011;6720;51.958;4.540;2024-03-08T12:35:09;23.97;;;21.47;;
13303;SDS011;6720;51.958;4.540;2024-03-08T12:37:35;24.47;;;21.87;;
13303;SDS011;6720;51.958;4.540;2024-03-08T12:40:00;24.90;;;21.23;;
13303;SDS011;6720;51.958;4.540;2024-03-08T12:42:25;23.33;;;20.83;;
13303;SDS011;6720;51.958;4.540;2024-03-08T12:44:51;23.27;;;20.47;;
13303;SDS011;6720;51.958;4.540;2024-03-08T12:47:16;23.73;;;21.07;;
13303;SDS011;6720;51.958;4.540;2024-03-08T12:49:41;23.53;;;21.13;;
13303;SDS011;6720;51.958;4.540;2024-03-08T12:52:08;23.23;;;20.87;;
13303;SDS011;6720;51.958;4.540;2024-03-08T12:54:35;23.40;;;20.80;;
13303;SDS011;6720;51.958;4.540;2024-03-08T12:57:00;22.87;;;20.47;;
13303;SDS011;6720;51.958;4.540;2024-03-08T12:59:25;22.90;;;20.50;;
13303;SDS011;6720;51.958;4.540;2024-03-08T13:01:51;22.90;;;20.57;;
13303;SDS011;6720;51.958;4.540;2024-03-08T13:04:18;23.43;;;20.93;;
13303;SDS011;6720;51.958;4.540;2024-03-08T13:06:44;23.77;;;21.07;;
13303;SDS011;6720;51.958;4.540;2024-03-08T13:09:11;22.40;;;19.73;;
13303;SDS011;6720;51.958;4.540;2024-03-08T13:11:37;22.83;;;20.53;;
13303;SDS011;6720;51.958;4.540;2024-03-08T13:14:03;22.43;;;20.23;;
13303;SDS011;6720;51.958;4.540;2024-03-08T13:16:29;22.57;;;20.27;;
13303;SDS011;6720;51.958;4.540;2024-03-08T13:18:54;21.87;;;19.57;;
13303;SDS011;6720;51.958;4.540;2024-03-08T13:21:21;23.83;;;21.17;;
13303;SDS011;6720;51.958;4.540;2024-03-08T13:23:49;22.77;;;20.47;;
13303;SDS011;6720;51.958;4.540;2024-03-08T13:26:14;23.40;;;20.93;;
13303;SDS011;6720;51.958;4.540;2024-03-08T13:28:43;21.33;;;19.13;;
13303;SDS011;6720;51.958;4.540;2024-03-08T13:31:10;23.93;;;20.83;;
13303;SDS011;6720;51.958;4.540;2024-03-08T13:33:38;22.70;;;20.40;;
13303;SDS011;6720;51.958;4.540;2024-03-08T13:36:11;23.00;;;20.70;;
13303;SDS011;6720;51.958;4.540;2024-03-08T13:38:55;22.73;;;20.43;;
13303;SDS011;6720;51.958;4.540;2024-03-08T13:41:24;22.80;;;20.40;;
13303;SDS011;6720;51.958;4.540;2024-03-08T13:43:49;22.43;;;20.17;;
13303;SDS011;6720;51.958;4.540;2024-03-08T13:46:15;22.63;;;20.20;;
13303;SDS011;6720;51.958;4.540;2024-03-08T13:48:40;23.73;;;21.17;;
13303;SDS011;6720;51.958;4.540;2024-03-08T13:51:06;23.10;;;20.80;;
13303;SDS011;6720;51.958;4.540;2024-03-08T13:53:31;21.97;;;19.87;;
13303;SDS011;6720;51.958;4.540;2024-03-08T13:55:58;22.37;;;20.17;;
13303;SDS011;6720;51.958;4.540;2024-03-08T13:58:23;22.80;;;20.60;;
13303;SDS011;6720;51.958;4.540;2024-03-08T14:00:48;22.20;;;19.97;;
13303;SDS011;6720;51.958;4.540;2024-03-08T14:03:14;23.07;;;20.77;;
13303;SDS011;6720;51.958;4.540;2024-03-08T14:05:39;22.83;;;20.53;;
13303;SDS011;6720;51.958;4.540;2024-03-08T14:08:08;25.77;;;21.53;;
13303;SDS011;6720;51.958;4.540;2024-03-08T14:10:34;22.60;;;20.20;;
13303;SDS011;6720;51.958;4.540;2024-03-08T14:12:59;22.47;;;20.27;;
13303;SDS011;6720;51.958;4.540;2024-03-08T14:15:25;22.30;;;19.77;;
13303;SDS011;6720;51.958;4.540;2024-03-08T14:17:53;23.40;;;20.93;;
13303;SDS011;6720;51.958;4.540;2024-03-08T14:20:18;22.10;;;19.53;;
13303;SDS011;6720;51.958;4.540;2024-03-08T14:22:44;23.27;;;20.90;;
13303;SDS011;6720;51.958;4.540;2024-03-08T14:25:09;22.60;;;20.20;;
13303;SDS011;6720;51.958;4.540;2024-03-08T14:27:42;22.80;;;20.50;;
13303;SDS011;6720;51.958;4.540;2024-03-08T14:30:09;22.43;;;20.10;;
13303;SDS011;6720;51.958;4.540;2024-03-08T14:32:35;21.97;;;19.07;;
13303;SDS011;6720;51.958;4.540;2024-03-08T14:35:03;23.50;;;20.70;;
13303;SDS011;6720;51.958;4.540;2024-03-08T14:37:29;22.87;;;20.67;;
13303;SDS011;6720;51.958;4.540;2024-03-08T14:39:54;22.47;;;19.97;;
13303;SDS011;6720;51.958;4.540;2024-03-08T14:42:20;21.40;;;19.30;;
13303;SDS011;6720;51.958;4.540;2024-03-08T14:44:47;21.53;;;19.20;;
13303;SDS011;6720;51.958;4.540;2024-03-08T14:47:16;22.43;;;20.07;;